Time;durP1;ratioP1;P1;durP2;ratioP2;P2;SDS_P1;SDS_P2;PMS_P1;PMS_P2;Temp;Humidity;BMP_temperature;BMP_pressure;BME280_temperature;BME280_humidity;BME280_pressure;Samples;Min_cycle;Max_cycle;Signal;HPM_P1;HPM_P2
2023/06/13 00:01:48;;;;;;;12.45;4.82;;;;;;;-142.75;88.62;76068.38;5026287;28;20164;-62
2023/06/13 00:04:15;;;;;;;5.80;4.00;;;;;;;-142.75;87.61;76097.88;5025919;28;20049;-63
2023/06/13 00:06:40;;;;;;;5.80;3.78;;;;;;;-142.75;88.45;76086.06;5025998;28;20497;-61
2023/06/13 00:09:06;;;;;;;8.63;3.92;;;;;;;-142.75;87.17;76090.00;5026188;28;20057;-64
2023/06/13 00:11:31;;;;;;;5.82;3.90;;;;;;;-142.75;86.65;76090.00;5025581;28;20036;-63
2023/06/13 00:13:56;;;;;;;10.38;4.55;;;;;;;-142.75;87.72;76086.06;5025680;28;20640;-62
2023/06/13 00:16:25;;;;;;;6.38;4.15;;;;;;;-142.75;87.99;76090.00;5025696;28;20025;-62
2023/06/13 00:18:52;;;;;;;10.10;4.43;;;;;;;-142.75;88.63;76093.94;5025428;28;20410;-63
2023/06/13 00:21:18;;;;;;;7.55;3.90;;;;;;;-142.75;88.05;76105.75;5025449;28;20029;-63
2023/06/13 00:23:43;;;;;;;7.10;3.67;;;;;;;-142.75;89.50;76113.63;5025595;28;20021;-62
2023/06/13 00:26:09;;;;;;;5.95;3.80;;;;;;;-142.75;89.06;76109.69;5026057;28;20510;-62
2023/06/13 00:28:35;;;;;;;9.70;4.28;;;;;;;-142.75;86.59;76119.53;5025802;28;20054;-63
2023/06/13 00:31:00;;;;;;;11.02;4.00;;;;;;;-142.75;84.82;76139.22;5025855;28;20105;-62
2023/06/13 00:33:31;;;;;;;6.95;3.70;;;;;;;-142.75;83.40;76117.56;5025334;28;20044;-63
2023/06/13 00:35:56;;;;;;;8.75;4.07;;;;;;;-142.75;82.12;76127.41;5025399;28;20128;-62
2023/06/13 00:38:23;;;;;;;6.78;3.72;;;;;;;-142.75;83.29;76123.47;5025276;28;20100;-62
2023/06/13 00:40:49;;;;;;;7.85;4.45;;;;;;;-142.75;82.42;76113.63;5025346;28;20552;-63
2023/06/13 00:43:17;;;;;;;8.52;3.75;;;;;;;-142.75;82.48;76115.59;5025426;28;20033;-61
2023/06/13 00:45:42;;;;;;;8.60;3.83;;;;;;;-142.75;81.94;76113.63;5025499;28;20105;-62
2023/06/13 00:48:09;;;;;;;6.05;3.65;;;;;;;-142.75;83.29;76105.75;5025426;28;20100;-63
2023/06/13 00:50:40;;;;;;;7.53;3.53;;;;;;;-142.75;85.18;76099.84;5024007;28;20025;-62
2023/06/13 00:53:11;;;;;;;6.65;3.83;;;;;;;-142.75;85.04;76121.50;5025307;28;20028;-62
2023/06/13 00:55:37;;;;;;;7.50;3.85;;;;;;;-142.75;86.08;76139.22;5025645;28;20112;-63
2023/06/13 00:58:06;;;;;;;6.25;3.88;;;;;;;-142.75;86.12;76145.13;5025076;28;20058;-62
2023/06/13 01:00:33;;;;;;;5.85;3.72;;;;;;;-142.75;85.84;76143.16;5024645;28;20410;-62
2023/06/13 01:02:59;;;;;;;4.90;3.10;;;;;;;-142.75;86.07;76149.06;5025053;28;20041;-63
2023/06/13 01:05:28;;;;;;;9.20;3.67;;;;;;;-142.75;85.43;76154.97;5024994;28;20029;-62
2023/06/13 01:07:57;;;;;;;11.10;3.85;;;;;;;-142.75;85.71;76156.94;5024958;28;20037;-63
2023/06/13 01:10:24;;;;;;;5.97;3.58;;;;;;;-142.75;85.62;76153.00;5025192;28;20021;-62
2023/06/13 01:13:08;;;;;;;7.07;3.75;;;;;;;-142.75;85.54;76145.13;5024877;28;20410;-62
2023/06/13 01:15:38;;;;;;;7.72;3.70;;;;;;;-142.75;85.07;76145.13;5025231;28;20029;-62
2023/06/13 01:18:07;;;;;;;7.30;3.78;;;;;;;-142.75;85.81;76145.13;5025030;28;20064;-62
2023/06/13 01:20:36;;;;;;;6.28;3.47;;;;;;;-142.75;84.99;76151.03;5024758;28;20021;-62
2023/06/13 01:23:08;;;;;;;8.10;3.65;;;;;;;-142.75;86.17;76153.00;5024645;28;20033;-62
2023/06/13 01:25:52;;;;;;;5.25;3.60;;;;;;;-142.75;84.89;76147.09;5025477;28;20029;-62
2023/06/13 01:28:20;;;;;;;9.25;3.97;;;;;;;-142.75;83.42;76156.94;5024448;28;20022;-61
2023/06/13 01:30:47;;;;;;;6.95;3.67;;;;;;;-142.75;84.49;76168.75;5023979;28;20486;-64
2023/06/13 01:33:12;;;;;;;5.68;3.75;;;;;;;-142.75;89.02;76170.72;5024797;28;20112;-63
2023/06/13 01:35:38;;;;;;;5.50;3.42;;;;;;;-142.75;94.85;76160.88;5024882;28;20498;-61
2023/06/13 01:38:04;;;;;;;8.30;3.60;;;;;;;-142.75;99.10;76172.69;5024797;28;20030;-62
2023/06/13 01:40:30;;;;;;;6.55;4.13;;;;;;;-142.75;94.40;76180.56;5024646;28;20071;-62
2023/06/13 01:42:55;;;;;;;6.78;3.65;;;;;;;-142.75;92.83;76180.56;5024553;28;21639;-63
2023/06/13 01:45:22;;;;;;;7.63;4.05;;;;;;;-142.75;94.45;76184.50;5024608;28;20116;-61
2023/06/13 01:48:12;;;;;;;8.13;3.83;;;;;;;-142.75;90.99;76200.25;5024871;28;20132;-62
2023/06/13 01:50:47;;;;;;;6.63;3.38;;;;;;;-142.75;90.50;76214.00;5024926;28;20567;-63
2023/06/13 01:53:28;;;;;;;5.47;3.85;;;;;;;-142.75;91.67;76233.69;5024528;28;20029;-62
2023/06/13 01:56:00;;;;;;;7.50;4.13;;;;;;;-142.75;94.06;76251.41;5024815;28;20430;-62
2023/06/13 01:58:39;;;;;;;10.32;3.95;;;;;;;-142.75;92.74;76247.47;5024253;28;20455;-62
2023/06/13 02:01:07;;;;;;;9.35;4.88;;;;;;;-142.75;93.94;76263.22;5025049;28;20029;-62
2023/06/13 02:03:33;;;;;;;5.07;3.33;;;;;;;-142.75;93.70;76261.25;5024363;28;20469;-62
2023/06/13 02:05:58;;;;;;;6.25;3.85;;;;;;;-142.75;93.15;76269.13;5024394;28;20271;-62
2023/06/13 02:08:24;;;;;;;9.60;3.70;;;;;;;-142.75;94.67;76267.16;5024580;28;20394;-62
2023/06/13 02:10:49;;;;;;;8.25;4.28;;;;;;;-142.75;98.50;76253.38;5024094;28;20061;-63
2023/06/13 02:13:15;;;;;;;6.28;3.83;;;;;;;-142.75;100.00;76255.34;5026974;28;20051;-62
2023/06/13 02:15:40;;;;;;;6.00;3.90;;;;;;;-142.75;100.00;76257.31;5028119;28;20029;-61
2023/06/13 02:18:07;;;;;;;10.50;3.90;;;;;;;-142.75;100.00;76263.22;5027900;28;21580;-62
2023/06/13 02:20:32;;;;;;;7.18;3.78;;;;;;;-142.75;98.14;76278.97;5028294;28;20025;-61
2023/06/13 02:22:58;;;;;;;8.82;4.57;;;;;;;-142.75;100.00;76271.09;5027822;28;20177;-62
2023/06/13 02:25:23;;;;;;;6.68;4.22;;;;;;;-142.75;100.00;76294.72;5027966;28;20025;-62
2023/06/13 02:27:48;;;;;;;7.28;4.38;;;;;;;-142.75;100.00;76306.53;5027525;28;20029;-63
2023/06/13 02:30:14;;;;;;;8.23;3.97;;;;;;;-142.75;100.00;76314.41;5027864;28;20033;-62
2023/06/13 02:32:42;;;;;;;6.03;3.88;;;;;;;-142.75;100.00;76316.38;5027870;28;20041;-60
2023/06/13 02:35:08;;;;;;;7.55;4.25;;;;;;;-142.75;100.00;76310.47;5027663;28;20036;-61
2023/06/13 02:37:33;;;;;;;10.05;4.00;;;;;;;-142.75;100.00;76316.38;5027686;28;20029;-61
2023/06/13 02:39:59;;;;;;;7.32;3.80;;;;;;;-142.75;100.00;76338.03;5027507;28;20040;-61
2023/06/13 02:42:26;;;;;;;10.25;4.03;;;;;;;-142.75;100.00;76334.09;5027540;28;20120;-64
2023/06/13 02:44:52;;;;;;;9.25;3.88;;;;;;;-142.75;100.00;76349.81;5027677;28;20041;-62
2023/06/13 02:47:19;;;;;;;6.85;3.92;;;;;;;-142.75;100.00;76361.63;5028203;28;20029;-62
2023/06/13 02:49:44;;;;;;;5.82;4.10;;;;;;;-142.75;100.00;76365.56;5027583;28;20029;-62
2023/06/13 02:52:10;;;;;;;6.65;4.32;;;;;;;-142.75;100.00;76365.56;5027133;28;20029;-61
2023/06/13 02:54:35;;;;;;;9.35;4.72;;;;;;;-142.75;100.00;76385.25;5027744;28;20036;-62
2023/06/13 02:57:00;;;;;;;6.75;4.03;;;;;;;-142.75;100.00;76393.13;5027644;28;20029;-61
2023/06/13 02:59:26;;;;;;;12.90;4.28;;;;;;;-142.75;100.00;76391.16;5027101;28;20022;-62
2023/06/13 03:01:52;;;;;;;6.50;4.10;;;;;;;-142.75;100.00;76389.19;5027284;28;20026;-62
2023/06/13 03:04:18;;;;;;;6.78;4.05;;;;;;;-142.75;100.00;76401.00;5027195;28;20540;-61
2023/06/13 03:06:44;;;;;;;5.88;3.65;;;;;;;-142.75;100.00;76412.81;5026896;28;20075;-62
2023/06/13 03:09:10;;;;;;;7.45;4.20;;;;;;;-142.75;100.00;76399.03;5027032;28;20112;-61
2023/06/13 03:11:36;;;;;;;5.93;3.65;;;;;;;-142.75;100.00;76412.81;5027158;28;20033;-62
2023/06/13 03:14:02;;;;;;;6.72;4.70;;;;;;;-142.75;100.00;76412.81;5026859;28;20394;-62
2023/06/13 03:16:28;;;;;;;8.07;4.68;;;;;;;-142.75;100.00;76424.63;5026883;28;20048;-61
2023/06/13 03:18:53;;;;;;;6.93;4.38;;;;;;;-142.75;100.00;76438.41;5026819;28;20025;-62
2023/06/13 03:21:20;;;;;;;7.93;4.35;;;;;;;-142.75;100.00;76428.56;5026799;28;20082;-64
2023/06/13 03:23:46;;;;;;;11.68;4.60;;;;;;;-142.75;100.00;76422.66;5025682;28;20017;-62
2023/06/13 03:26:11;;;;;;;6.82;3.92;;;;;;;-142.75;100.00;76432.50;5027031;28;20040;-62
2023/06/13 03:28:37;;;;;;;8.48;4.38;;;;;;;-142.75;100.00;76438.41;5027086;28;20024;-63
2023/06/13 03:31:02;;;;;;;7.45;4.45;;;;;;;-142.75;100.00;76440.38;5026772;28;20040;-62
2023/06/13 03:33:27;;;;;;;7.10;4.13;;;;;;;-142.75;100.00;76442.34;5026610;28;20025;-63
2023/06/13 03:35:53;;;;;;;6.43;3.55;;;;;;;-142.75;100.00;76440.38;5026709;28;20565;-62
2023/06/13 03:38:20;;;;;;;7.30;4.00;;;;;;;-142.75;100.00;76432.50;5026542;28;20025;-62
2023/06/13 03:40:45;;;;;;;7.20;4.00;;;;;;;-142.75;100.00;76436.44;5026536;28;20025;-61
2023/06/13 03:43:11;;;;;;;7.10;4.40;;;;;;;-142.75;100.00;76432.50;5026191;28;20062;-62
2023/06/13 03:45:36;;;;;;;6.57;3.58;;;;;;;-142.75;100.00;76444.31;5026578;28;20678;-62
2023/06/13 03:48:01;;;;;;;8.82;4.30;;;;;;;-142.75;100.00;76456.13;5026404;28;20017;-64
2023/06/13 03:50:27;;;;;;;7.60;4.32;;;;;;;-142.75;100.00;76456.13;5026382;28;20394;-63
2023/06/13 03:52:52;;;;;;;6.60;4.00;;;;;;;-142.75;100.00;76450.22;5026073;28;20033;-62
2023/06/13 03:55:18;;;;;;;9.15;4.28;;;;;;;-142.75;100.00;76452.19;5026343;28;20029;-63
2023/06/13 03:57:44;;;;;;;7.53;4.28;;;;;;;-142.75;100.00;76442.34;5026193;28;20020;-61
2023/06/13 04:00:10;;;;;;;7.32;4.15;;;;;;;-142.75;100.00;76440.38;5025981;28;20497;-64
2023/06/13 04:02:36;;;;;;;10.68;4.10;;;;;;;-142.75;100.00;76450.22;5026745;28;20036;-62
2023/06/13 04:05:02;;;;;;;7.55;4.25;;;;;;;-142.75;100.00;76464.00;5025949;28;20119;-62
2023/06/13 04:07:33;;;;;;;7.03;4.15;;;;;;;-142.75;100.00;76481.72;5025964;28;20064;-62
2023/06/13 04:09:58;;;;;;;7.97;4.90;;;;;;;-142.75;100.00;76487.63;5025640;28;20018;-61
2023/06/13 04:12:23;;;;;;;13.85;4.50;;;;;;;-142.75;100.00;76485.66;5025648;28;20025;-62
2023/06/13 04:14:49;;;;;;;6.85;4.20;;;;;;;-142.75;100.00;76475.81;5025820;28;20681;-61
2023/06/13 04:17:14;;;;;;;8.68;4.65;;;;;;;-142.75;100.00;76489.59;5025729;28;20041;-61
2023/06/13 04:19:39;;;;;;;7.78;3.97;;;;;;;-142.75;100.00;76479.75;5025608;28;20109;-63
2023/06/13 04:22:05;;;;;;;8.57;4.03;;;;;;;-142.75;100.00;76475.81;5025657;28;20445;-62
2023/06/13 04:24:31;;;;;;;6.50;3.30;;;;;;;-142.75;100.00;76483.69;5025782;28;20083;-61
2023/06/13 04:26:56;;;;;;;7.50;4.28;;;;;;;-142.75;100.00;76467.94;5025694;28;20025;-62
2023/06/13 04:29:25;;;;;;;8.73;4.32;;;;;;;-142.75;100.00;76460.06;5025510;28;20406;-61
2023/06/13 04:31:50;;;;;;;8.07;4.15;;;;;;;-142.75;100.00;76448.25;5025966;28;20498;-62
2023/06/13 04:34:18;;;;;;;7.20;4.35;;;;;;;-142.75;100.00;76448.25;5025524;28;20104;-64
2023/06/13 04:36:44;;;;;;;7.65;3.60;;;;;;;-142.75;100.00;76446.28;5025034;28;20033;-61
2023/06/13 04:39:10;;;;;;;7.78;4.40;;;;;;;-142.75;100.00;76436.44;5025070;28;20572;-64
2023/06/13 04:41:37;;;;;;;7.88;3.78;;;;;;;-142.75;100.00;76432.50;5024864;28;20033;-61
2023/06/13 04:44:10;;;;;;;11.70;4.18;;;;;;;-142.75;100.00;76430.53;5025011;28;20036;-61
2023/06/13 04:46:38;;;;;;;9.63;4.35;;;;;;;-142.75;100.00;76428.56;5025132;28;20017;-60
2023/06/13 04:49:06;;;;;;;8.32;4.25;;;;;;;-142.75;100.00;76420.69;5025107;28;20017;-61
2023/06/13 04:51:33;;;;;;;8.85;4.18;;;;;;;-142.75;100.00;76412.81;5024514;28;20041;-61
2023/06/13 04:53:59;;;;;;;9.18;4.13;;;;;;;-142.75;100.00;76393.13;5024486;28;20075;-61
2023/06/13 04:56:28;;;;;;;6.90;4.40;;;;;;;-142.75;100.00;76387.22;5024999;28;20021;-62
2023/06/13 04:58:55;;;;;;;11.30;4.55;;;;;;;-142.75;100.00;76383.28;5024597;28;20513;-62
2023/06/13 05:01:27;;;;;;;6.88;3.88;;;;;;;-142.75;100.00;76367.53;5025056;28;20634;-62
2023/06/13 05:03:53;;;;;;;9.27;3.40;;;;;;;-142.75;100.00;76361.63;5024363;28;20041;-62
2023/06/13 05:06:20;;;;;;;6.20;3.45;;;;;;;-142.75;100.00;76343.94;5025008;28;20597;-62
2023/06/13 05:08:46;;;;;;;9.50;4.07;;;;;;;-142.75;100.00;76340.00;5024949;28;20025;-63
2023/06/13 05:11:12;;;;;;;9.88;4.20;;;;;;;-142.75;100.00;76326.22;5025070;28;20013;-61
2023/06/13 05:13:37;;;;;;;8.18;3.78;;;;;;;-142.75;100.00;76326.22;5024715;28;20036;-61
2023/06/13 05:16:03;;;;;;;7.07;4.15;;;;;;;-142.75;98.53;76310.47;5024009;28;20151;-59
2023/06/13 05:18:29;;;;;;;7.93;4.15;;;;;;;-142.75;97.90;76306.53;5023665;28;20406;-63
2023/06/13 05:20:59;;;;;;;10.95;4.00;;;;;;;-142.75;98.06;76304.56;5024208;28;20033;-61
2023/06/13 05:23:25;;;;;;;14.45;4.68;;;;;;;-142.75;99.42;76290.78;5024265;28;20072;-61
2023/06/13 05:25:51;;;;;;;6.43;4.10;;;;;;;-142.75;99.65;76273.06;5024970;28;20060;-63
2023/06/13 05:28:16;;;;;;;10.25;4.38;;;;;;;-142.75;96.42;76271.09;5024462;28;20769;-61
2023/06/13 05:30:42;;;;;;;6.88;3.97;;;;;;;-142.75;94.86;76251.41;5024713;28;20151;-61
2023/06/13 05:33:08;;;;;;;6.80;3.65;;;;;;;-142.75;99.42;76233.69;5025397;28;20048;-61
2023/06/13 05:35:33;;;;;;;6.40;4.10;;;;;;;-142.75;97.34;76227.78;5025007;28;20021;-61
2023/06/13 05:37:59;;;;;;;6.28;3.90;;;;;;;-142.75;96.40;76212.03;5024465;28;20257;-60
2023/06/13 05:40:24;;;;;;;5.85;3.67;;;;;;;-142.75;96.12;76204.16;5025011;28;20017;-60
2023/06/13 05:42:49;;;;;;;7.60;4.30;;;;;;;-142.75;92.94;76215.97;5024766;28;20021;-62
2023/06/13 05:45:14;;;;;;;6.43;3.58;;;;;;;-142.75;93.30;76188.44;5024821;28;20502;-63
2023/06/13 05:47:40;;;;;;;8.95;4.40;;;;;;;-142.75;96.24;76174.66;5026599;28;20029;-61
2023/06/13 05:50:05;;;;;;;7.32;4.20;;;;;;;-142.75;94.52;76172.69;5028943;28;20095;-62
2023/06/13 05:52:31;;;;;;;8.45;4.60;;;;;;;-142.75;91.21;76184.50;5028257;28;20032;-62
2023/06/13 05:54:56;;;;;;;8.02;4.22;;;;;;;-142.75;94.12;76153.00;5028301;28;20470;-62
2023/06/13 05:57:24;;;;;;;9.82;4.63;;;;;;;-142.75;91.40;76149.06;5028777;28;20014;-62
2023/06/13 05:59:50;;;;;;;7.53;4.30;;;;;;;-142.75;93.36;76135.28;5028268;28;20425;-63
2023/06/13 06:02:15;;;;;;;6.25;4.03;;;;;;;-142.75;91.93;76133.31;5029209;28;20036;-63
2023/06/13 06:04:40;;;;;;;15.90;4.18;;;;;;;-142.75;93.90;76119.53;5028403;28;20478;-62
2023/06/13 06:07:06;;;;;;;7.20;4.50;;;;;;;-142.75;95.13;76093.94;5028394;28;20480;-63
2023/06/13 06:09:31;;;;;;;6.75;4.47;;;;;;;-142.75;93.11;76078.19;5028188;28;20020;-63
2023/06/13 06:11:57;;;;;;;8.98;4.45;;;;;;;-142.75;89.55;76076.22;5027979;28;20472;-63
2023/06/13 06:14:22;;;;;;;8.15;4.22;;;;;;;-142.75;90.06;76062.47;5027976;28;20104;-63
2023/06/13 06:16:50;;;;;;;10.00;4.78;;;;;;;-142.75;90.11;76046.72;5028476;28;20060;-63
2023/06/13 06:19:15;;;;;;;9.45;4.88;;;;;;;-142.75;87.09;76044.75;5028128;28;20018;-62
2023/06/13 06:21:40;;;;;;;9.95;4.30;;;;;;;-142.75;86.17;76040.81;5026440;28;20021;-64
2023/06/13 06:24:06;;;;;;;8.10;4.40;;;;;;;-142.75;85.74;76050.66;5028286;28;20305;-63
2023/06/13 06:26:32;;;;;;;8.45;4.10;;;;;;;-142.75;85.88;76034.91;5028300;28;20035;-62
2023/06/13 06:28:57;;;;;;;6.15;4.25;;;;;;;-142.75;84.97;76034.91;5027421;28;20108;-63
2023/06/13 06:31:24;;;;;;;8.63;4.38;;;;;;;-142.75;87.21;76003.41;5028145;28;20025;-63
2023/06/13 06:33:49;;;;;;;10.50;5.00;;;;;;;-142.75;84.54;76001.44;5027953;28;20041;-63
2023/06/13 06:36:15;;;;;;;7.78;4.13;;;;;;;-142.75;82.47;75999.47;5027770;28;20730;-62
2023/06/13 06:38:42;;;;;;;10.00;4.55;;;;;;;-142.75;86.52;75987.66;5027711;28;20036;-63
2023/06/13 06:41:07;;;;;;;9.32;3.88;;;;;;;-142.75;82.64;75973.88;5025968;28;20021;-63
2023/06/13 06:43:32;;;;;;;8.27;4.40;;;;;;;-142.75;82.22;75952.25;5026886;28;20051;-65
2023/06/13 06:45:58;;;;;;;7.95;3.90;;;;;;;-142.75;84.81;75932.56;5027264;28;20021;-64
2023/06/13 06:48:23;;;;;;;7.13;4.07;;;;;;;-142.75;81.64;75920.75;5027309;28;20027;-64
2023/06/13 06:50:48;;;;;;;6.35;3.97;;;;;;;-142.75;83.07;75901.06;5027610;28;20029;-64
2023/06/13 06:53:13;;;;;;;9.05;4.22;;;;;;;-142.75;81.69;75883.34;5027295;28;20041;-64
2023/06/13 06:55:39;;;;;;;7.22;3.95;;;;;;;-142.75;81.98;75851.88;5027705;28;20029;-64
2023/06/13 06:58:04;;;;;;;7.85;3.85;;;;;;;-142.75;81.69;75838.09;5026652;28;20013;-64
2023/06/13 07:00:30;;;;;;;15.35;3.83;;;;;;;-142.75;83.68;75810.53;5025705;28;20049;-64
2023/06/13 07:02:55;;;;;;;7.45;3.63;;;;;;;-142.75;80.64;75782.97;5026221;28;20441;-65
2023/06/13 07:05:20;;;;;;;10.40;3.60;;;;;;;-142.75;81.95;75755.44;5026596;28;20025;-64
2023/06/13 07:07:46;;;;;;;7.70;3.60;;;;;;;-142.75;78.98;75731.81;5026635;28;20056;-64
2023/06/13 07:10:12;;;;;;;5.55;3.90;;;;;;;-142.75;77.64;75720.00;5026689;28;20026;-65
2023/06/13 07:12:40;;;;;;;8.23;4.05;;;;;;;-142.75;76.64;75710.16;5026791;28;20136;-65
2023/06/13 07:15:06;;;;;;;6.00;3.70;;;;;;;-142.75;78.85;75704.25;5026579;28;20091;-64
2023/06/13 07:17:32;;;;;;;6.90;3.70;;;;;;;-142.75;77.16;75704.25;5026637;28;20478;-64
2023/06/13 07:19:57;;;;;;;8.63;3.25;;;;;;;-142.75;78.23;75682.59;5025828;28;20036;-64
2023/06/13 07:22:23;;;;;;;8.77;3.47;;;;;;;-142.75;76.26;75672.78;5026453;28;20030;-65
2023/06/13 07:24:48;;;;;;;6.22;3.53;;;;;;;-142.75;74.38;75672.78;5025685;28;20037;-64
2023/06/13 07:27:15;;;;;;;7.90;3.80;;;;;;;-142.75;72.58;75700.31;5008691;28;20059;-64
2023/06/13 07:29:41;;;;;;;6.20;3.67;;;;;;;-142.75;73.72;75698.34;5023001;28;20018;-66
2023/06/13 07:32:06;;;;;;;6.00;3.65;;;;;;;-142.75;72.38;75680.63;5026077;28;20025;-64
2023/06/13 07:34:32;;;;;;;5.20;3.13;;;;;;;-142.75;71.54;75676.69;5023716;28;20025;-63
2023/06/13 07:36:57;;;;;;;6.40;3.03;;;;;;;-142.75;70.93;75680.63;5023329;28;20025;-63
2023/06/13 07:39:22;;;;;;;9.15;3.67;;;;;;;-142.75;71.31;75668.84;5024500;28;20033;-64
2023/06/13 07:41:49;;;;;;;4.50;3.03;;;;;;;-142.75;72.17;75660.97;5026082;28;20034;-64
2023/06/13 07:44:16;;;;;;;6.38;3.75;;;;;;;-142.75;74.16;75629.47;5026221;28;20398;-65
2023/06/13 07:46:42;;;;;;;7.18;3.72;;;;;;;-142.75;73.74;75617.66;5026134;28;20060;-64
2023/06/13 07:49:07;;;;;;;5.05;3.13;;;;;;;-142.75;72.95;75586.19;5025328;28;20061;-64
2023/06/13 07:51:33;;;;;;;6.47;3.30;;;;;;;-142.75;72.27;75570.44;5024527;28;20028;-64
2023/06/13 07:53:59;;;;;;;7.13;3.33;;;;;;;-142.75;74.66;75554.69;5023764;28;20045;-64
2023/06/13 07:56:24;;;;;;;5.75;3.15;;;;;;;-142.75;72.58;75536.97;5024721;28;20017;-64
2023/06/13 07:58:50;;;;;;;6.88;3.40;;;;;;;-142.75;71.80;75519.25;5025670;28;20594;-64
2023/06/13 08:01:15;;;;;;;8.57;3.45;;;;;;;-142.75;71.93;75513.38;5025486;28;20026;-65
2023/06/13 08:03:41;;;;;;;6.38;3.50;;;;;;;-142.75;70.85;75499.59;5025975;28;20108;-62
2023/06/13 08:06:07;;;;;;;9.93;3.25;;;;;;;-142.75;70.22;75475.97;5025124;28;20457;-63
2023/06/13 08:08:32;;;;;;;4.97;3.10;;;;;;;-142.75;70.76;75452.34;5025068;28;20095;-64
2023/06/13 08:10:57;;;;;;;5.18;2.83;;;;;;;-142.75;68.88;75444.47;5024292;28;20074;-64
2023/06/13 08:13:23;;;;;;;6.57;2.88;;;;;;;-142.75;66.15;75450.38;5024642;28;20067;-63
2023/06/13 08:15:48;;;;;;;6.72;2.85;;;;;;;-142.75;65.31;75474.00;5024856;28;20204;-64
2023/06/13 08:18:14;;;;;;;12.07;3.33;;;;;;;-142.75;68.33;75479.91;5022948;28;20021;-62
2023/06/13 08:20:40;;;;;;;10.85;3.33;;;;;;;-142.75;68.30;75456.28;5024830;28;20486;-63
2023/06/13 08:23:05;;;;;;;6.72;3.10;;;;;;;-142.75;67.20;75444.47;5023685;28;20433;-62
2023/06/13 08:25:31;;;;;;;6.07;3.30;;;;;;;-142.75;68.17;75413.00;5024796;28;20036;-64
2023/06/13 08:27:56;;;;;;;7.03;3.42;;;;;;;-142.75;63.76;75409.06;5024948;28;20040;-62
2023/06/13 08:30:21;;;;;;;4.32;3.28;;;;;;;-142.75;65.75;75385.44;5025302;28;20041;-65
2023/06/13 08:32:47;;;;;;;7.88;3.33;;;;;;;-142.75;66.17;75361.84;5025186;28;20044;-64
2023/06/13 08:35:13;;;;;;;7.18;3.20;;;;;;;-142.75;67.16;75373.63;5024436;28;20033;-64
2023/06/13 08:37:39;;;;;;;5.43;3.45;;;;;;;-142.75;64.58;75369.69;5022383;28;20501;-65
2023/06/13 08:40:07;;;;;;;5.10;3.33;;;;;;;-142.75;64.72;75338.22;5023718;28;20099;-64
2023/06/13 08:42:33;;;;;;;6.85;3.10;;;;;;;-142.75;61.76;75344.13;5023835;28;20552;-63
2023/06/13 08:45:00;;;;;;;7.75;3.38;;;;;;;-142.75;63.04;75322.47;5024593;28;20100;-65
2023/06/13 08:47:25;;;;;;;9.20;3.60;;;;;;;-142.75;58.89;75344.13;5024537;28;20108;-65
2023/06/13 08:49:52;;;;;;;5.93;3.05;;;;;;;-142.75;62.55;75342.16;5024521;28;20102;-65
2023/06/13 08:52:18;;;;;;;7.63;3.30;;;;;;;-142.75;58.94;75292.97;5024355;28;20036;-66
2023/06/13 08:54:45;;;;;;;5.50;3.22;;;;;;;-142.75;56.94;75324.44;5025072;28;20029;-65
2023/06/13 08:57:18;;;;;;;7.70;3.10;;;;;;;-142.75;56.93;75294.94;5025451;28;20053;-67
2023/06/13 08:59:45;;;;;;;8.00;3.47;;;;;;;-142.75;51.76;75318.53;5024967;28;20048;-65
2023/06/13 09:02:14;;;;;;;8.02;3.30;;;;;;;-142.75;56.74;75283.13;5025773;28;20025;-66
2023/06/13 09:04:43;;;;;;;7.85;3.35;;;;;;;-142.75;58.10;75271.31;5026409;28;20021;-65
2023/06/13 09:07:10;;;;;;;6.75;3.30;;;;;;;-142.75;54.92;75257.53;5026898;28;20028;-65
2023/06/13 09:09:36;;;;;;;4.20;2.72;;;;;;;-142.75;53.91;75247.69;5042042;28;20025;-65
2023/06/13 09:12:04;;;;;;;9.30;3.20;;;;;;;-142.75;51.55;75253.59;5026215;28;20028;-65
2023/06/13 09:14:29;;;;;;;6.20;2.83;;;;;;;-142.75;50.61;75271.31;5026413;28;20091;-65
2023/06/13 09:16:55;;;;;;;7.90;3.50;;;;;;;-142.75;52.27;75257.53;5026416;28;20033;-65
2023/06/13 09:19:20;;;;;;;5.95;2.90;;;;;;;-142.75;51.23;75263.44;5026145;28;20029;-65
2023/06/13 09:21:46;;;;;;;5.80;3.33;;;;;;;-142.75;51.21;75255.56;5026728;28;21469;-65
2023/06/13 09:24:12;;;;;;;5.45;3.17;;;;;;;-142.75;49.89;75243.75;5030383;28;20021;-65
2023/06/13 09:26:39;;;;;;;6.65;3.20;;;;;;;-142.75;50.47;75229.97;5030673;28;20487;-66
2023/06/13 09:29:06;;;;;;;7.93;3.60;;;;;;;-142.75;52.03;75204.41;5028563;28;20017;-66
2023/06/13 09:31:32;;;;;;;5.97;2.60;;;;;;;-142.75;52.24;75176.84;5030037;28;20041;-66
2023/06/13 09:34:01;;;;;;;4.13;3.08;;;;;;;-142.75;50.92;75167.00;5030141;28;20026;-65
2023/06/13 09:36:27;;;;;;;11.80;3.22;;;;;;;-142.75;52.75;75182.75;5030307;28;20770;-65
2023/06/13 09:38:54;;;;;;;5.88;3.65;;;;;;;-142.75;51.32;75186.69;5030060;28;20033;-64
2023/06/13 09:41:19;;;;;;;6.47;3.55;;;;;;;-142.75;50.88;75170.94;5030462;28;20033;-64
2023/06/13 09:43:45;;;;;;;4.63;2.78;;;;;;;-142.75;52.15;75170.94;5029993;28;20037;-65
2023/06/13 09:46:13;;;;;;;7.28;3.17;;;;;;;-142.75;49.34;75190.63;5030060;28;20119;-65
2023/06/13 09:48:44;;;;;;;4.65;3.13;;;;;;;-142.75;47.75;75220.16;5030099;28;20021;-66
2023/06/13 09:51:13;;;;;;;4.45;3.10;;;;;;;-142.75;51.23;75239.81;5029819;28;20037;-65
2023/06/13 09:53:39;;;;;;;5.88;2.85;;;;;;;-142.75;54.63;75235.88;5030014;28;20029;-65
2023/06/13 09:56:09;;;;;;;4.63;3.10;;;;;;;-142.75;52.31;75259.50;5029873;28;20061;-65
2023/06/13 09:58:37;;;;;;;11.77;3.67;;;;;;;-142.75;52.78;75310.66;5029670;28;20113;-63
2023/06/13 10:01:03;;;;;;;8.95;3.17;;;;;;;-142.75;52.92;75318.53;5029551;28;20072;-65
2023/06/13 10:03:29;;;;;;;6.85;3.20;;;;;;;-142.75;52.97;75318.53;5029744;28;20025;-65
2023/06/13 10:05:58;;;;;;;5.32;2.90;;;;;;;-142.75;53.85;75314.59;5029898;28;20487;-65
2023/06/13 10:08:23;;;;;;;8.43;3.40;;;;;;;-142.75;56.55;75310.66;5029637;28;20056;-66
2023/06/13 10:10:49;;;;;;;9.75;3.30;;;;;;;-142.75;53.11;75302.78;5029494;28;20091;-66
2023/06/13 10:13:18;;;;;;;12.55;3.65;;;;;;;-142.75;53.93;75302.78;5029437;28;20466;-65
2023/06/13 10:15:50;;;;;;;6.38;3.28;;;;;;;-142.75;55.43;75310.66;5029832;28;20032;-65
2023/06/13 10:18:20;;;;;;;9.70;3.67;;;;;;;-142.75;51.45;75302.78;5029401;28;20029;-66
2023/06/13 10:20:48;;;;;;;5.85;3.10;;;;;;;-142.75;54.29;75294.94;5029300;28;20025;-66
2023/06/13 10:23:19;;;;;;;8.20;3.35;;;;;;;-142.75;57.20;75279.19;5029015;28;20068;-65
2023/06/13 10:25:50;;;;;;;7.97;3.20;;;;;;;-142.75;52.70;75259.50;5029212;28;20065;-65
2023/06/13 10:28:59;;;;;;;8.52;3.42;;;;;;;-142.75;51.33;75255.56;5028811;28;20033;-67
2023/06/13 10:31:35;;;;;;;5.15;3.35;;;;;;;-142.75;53.40;75259.50;5022198;28;20522;-66
2023/06/13 10:34:11;;;;;;;;;;;;;;;-142.75;52.32;75273.28;5027901;28;20033;-67
2023/06/13 10:37:16;;;;;;;6.28;3.17;;;;;;;-142.75;52.07;75308.69;5028345;28;19917;-66
2023/06/13 10:40:06;;;;;;;10.95;3.90;;;;;;;-142.75;52.21;75291.00;5022559;28;20041;-65
2023/06/13 10:42:39;;;;;;;6.57;3.50;;;;;;;-142.75;53.83;75287.06;5027700;28;20071;-65
2023/06/13 10:45:07;;;;;;;8.05;3.10;;;;;;;-142.75;51.78;75277.22;5027837;28;20032;-67
2023/06/13 10:47:35;;;;;;;4.85;3.03;;;;;;;-142.75;50.08;75255.56;5027990;28;20029;-66
2023/06/13 10:50:02;;;;;;;11.65;3.30;;;;;;;-142.75;51.01;75247.69;5027627;28;20195;-67
2023/06/13 10:52:29;;;;;;;4.13;2.78;;;;;;;-142.75;50.17;75263.44;5027208;28;20116;-67
2023/06/13 10:54:58;;;;;;;5.80;2.92;;;;;;;-142.75;51.24;75261.47;5027835;28;20031;-66
2023/06/13 10:57:46;;;;;;;6.82;3.45;;;;;;;-142.75;51.17;75267.38;5026486;28;20393;-64
2023/06/13 11:00:26;;;;;;;6.15;2.97;;;;;;;-142.75;50.09;75283.13;5027463;28;20095;-63
2023/06/13 11:03:05;;;;;;;10.32;2.95;;;;;;;-142.75;50.63;75283.13;5027212;28;20117;-66
2023/06/13 11:05:33;;;;;;;8.40;2.83;;;;;;;-142.75;49.89;75267.38;5027657;28;20718;-66
2023/06/13 11:07:59;;;;;;;6.75;3.42;;;;;;;-142.75;52.45;75235.88;5027509;28;20244;-65
2023/06/13 11:10:25;;;;;;;5.38;3.20;;;;;;;-142.75;53.76;75214.25;5027390;28;20594;-66
2023/06/13 11:12:53;;;;;;;5.80;3.13;;;;;;;-142.75;50.70;75208.34;5027220;28;20037;-66
2023/06/13 11:15:27;;;;;;;5.35;2.53;;;;;;;-142.75;50.39;75228.00;5027112;28;20030;-67